sensor_id;sensor_type;location;lat;lon;timestamp;P1;durP1;ratioP1;P2;durP2;ratioP2
9671;SDS011;4874;43.568;27.824;2023-04-15T00:02:03;4.88;;;2.00;;
9671;SDS011;4874;43.568;27.824;2023-04-15T00:04:39;8.93;;;2.63;;
9671;SDS011;4874;43.568;27.824;2023-04-15T00:09:33;7.15;;;3.10;;
9671;SDS011;4874;43.568;27.824;2023-04-15T00:14:27;9.18;;;3.40;;
9671;SDS011;4874;43.568;27.824;2023-04-15T00:16:53;7.18;;;3.03;;
9671;SDS011;4874;43.568;27.824;2023-04-15T00:19:22;7.88;;;2.72;;
9671;SDS011;4874;43.568;27.824;2023-04-15T00:21:49;8.93;;;2.60;;
9671;SDS011;4874;43.568;27.824;2023-04-15T00:24:16;8.10;;;2.55;;
9671;SDS011;4874;43.568;27.824;2023-04-15T00:26:43;3.97;;;2.15;;
9671;SDS011;4874;43.568;27.824;2023-04-15T00:31:36;5.90;;;2.45;;
9671;SDS011;4874;43.568;27.824;2023-04-15T00:34:03;4.78;;;2.13;;
9671;SDS011;4874;43.568;27.824;2023-04-15T00:36:30;3.75;;;2.03;;
9671;SDS011;4874;43.568;27.824;2023-04-15T00:38:57;3.55;;;1.88;;
9671;SDS011;4874;43.568;27.824;2023-04-15T00:41:24;4.20;;;1.73;;
9671;SDS011;4874;43.568;27.824;2023-04-15T00:46:17;4.10;;;1.90;;
9671;SDS011;4874;43.568;27.824;2023-04-15T00:48:46;4.70;;;2.10;;
9671;SDS011;4874;43.568;27.824;2023-04-15T00:53:40;6.95;;;2.20;;
9671;SDS011;4874;43.568;27.824;2023-04-15T00:56:07;5.20;;;2.30;;
9671;SDS011;4874;43.568;27.824;2023-04-15T00:58:34;4.88;;;2.20;;
9671;SDS011;4874;43.568;27.824;2023-04-15T01:01:02;5.63;;;2.05;;
9671;SDS011;4874;43.568;27.824;2023-04-15T01:03:29;5.03;;;2.33;;
9671;SDS011;4874;43.568;27.824;2023-04-15T01:05:56;4.53;;;1.90;;
9671;SDS011;4874;43.568;27.824;2023-04-15T01:08:27;6.22;;;2.42;;
9671;SDS011;4874;43.568;27.824;2023-04-15T01:10:55;6.07;;;2.47;;
9671;SDS011;4874;43.568;27.824;2023-04-15T01:13:23;4.70;;;2.42;;
9671;SDS011;4874;43.568;27.824;2023-04-15T01:15:50;5.32;;;2.22;;
9671;SDS011;4874;43.568;27.824;2023-04-15T01:18:18;10.50;;;2.50;;
9671;SDS011;4874;43.568;27.824;2023-04-15T01:20:46;6.05;;;2.50;;
9671;SDS011;4874;43.568;27.824;2023-04-15T01:25:39;6.18;;;3.08;;
9671;SDS011;4874;43.568;27.824;2023-04-15T01:28:08;6.20;;;2.90;;
9671;SDS011;4874;43.568;27.824;2023-04-15T01:30:36;5.72;;;3.08;;
9671;SDS011;4874;43.568;27.824;2023-04-15T01:33:03;4.20;;;2.22;;
9671;SDS011;4874;43.568;27.824;2023-04-15T01:37:57;5.78;;;2.38;;
9671;SDS011;4874;43.568;27.824;2023-04-15T01:40:34;4.68;;;2.47;;
9671;SDS011;4874;43.568;27.824;2023-04-15T01:43:01;4.95;;;2.25;;
9671;SDS011;4874;43.568;27.824;2023-04-15T01:45:29;10.57;;;6.15;;
9671;SDS011;4874;43.568;27.824;2023-04-15T01:50:22;6.10;;;2.90;;
9671;SDS011;4874;43.568;27.824;2023-04-15T01:52:49;5.97;;;2.30;;
9671;SDS011;4874;43.568;27.824;2023-04-15T01:55:16;4.25;;;1.90;;
9671;SDS011;4874;43.568;27.824;2023-04-15T01:57:43;5.60;;;1.88;;
9671;SDS011;4874;43.568;27.824;2023-04-15T02:00:10;6.45;;;2.05;;
9671;SDS011;4874;43.568;27.824;2023-04-15T02:02:37;4.00;;;1.85;;
9671;SDS011;4874;43.568;27.824;2023-04-15T02:07:31;4.72;;;1.85;;
9671;SDS011;4874;43.568;27.824;2023-04-15T02:12:24;6.35;;;2.10;;
9671;SDS011;4874;43.568;27.824;2023-04-15T02:14:51;6.30;;;2.00;;
9671;SDS011;4874;43.568;27.824;2023-04-15T02:19:44;5.72;;;2.03;;
9671;SDS011;4874;43.568;27.824;2023-04-15T02:24:43;5.03;;;1.92;;
9671;SDS011;4874;43.568;27.824;2023-04-15T02:27:14;2.90;;;1.50;;
9671;SDS011;4874;43.568;27.824;2023-04-15T02:29:43;8.15;;;1.80;;
9671;SDS011;4874;43.568;27.824;2023-04-15T02:32:11;9.00;;;3.03;;
9671;SDS011;4874;43.568;27.824;2023-04-15T02:34:39;7.85;;;3.03;;
9671;SDS011;4874;43.568;27.824;2023-04-15T02:37:08;5.03;;;2.10;;
9671;SDS011;4874;43.568;27.824;2023-04-15T02:39:35;10.10;;;2.13;;
9671;SDS011;4874;43.568;27.824;2023-04-15T02:42:02;10.80;;;2.17;;
9671;SDS011;4874;43.568;27.824;2023-04-15T02:44:31;4.97;;;1.77;;
9671;SDS011;4874;43.568;27.824;2023-04-15T02:46:59;6.57;;;2.30;;
9671;SDS011;4874;43.568;27.824;2023-04-15T02:51:55;4.93;;;1.85;;
9671;SDS011;4874;43.568;27.824;2023-04-15T02:54:23;6.30;;;1.98;;
9671;SDS011;4874;43.568;27.824;2023-04-15T02:56:50;6.78;;;1.98;;
9671;SDS011;4874;43.568;27.824;2023-04-15T02:59:20;7.57;;;2.40;;
9671;SDS011;4874;43.568;27.824;2023-04-15T03:01:47;5.90;;;1.92;;
9671;SDS011;4874;43.568;27.824;2023-04-15T03:04:14;5.20;;;2.25;;
9671;SDS011;4874;43.568;27.824;2023-04-15T03:06:41;12.88;;;3.08;;
9671;SDS011;4874;43.568;27.824;2023-04-15T03:09:08;6.38;;;1.98;;
9671;SDS011;4874;43.568;27.824;2023-04-15T03:11:35;4.82;;;1.55;;
9671;SDS011;4874;43.568;27.824;2023-04-15T03:14:05;6.35;;;1.80;;
9671;SDS011;4874;43.568;27.824;2023-04-15T03:18:59;7.72;;;1.90;;
9671;SDS011;4874;43.568;27.824;2023-04-15T03:21:26;9.80;;;2.20;;
9671;SDS011;4874;43.568;27.824;2023-04-15T03:26:26;7.05;;;2.60;;
9671;SDS011;4874;43.568;27.824;2023-04-15T03:28:54;8.48;;;2.60;;
9671;SDS011;4874;43.568;27.824;2023-04-15T03:31:21;5.50;;;2.30;;
9671;SDS011;4874;43.568;27.824;2023-04-15T03:33:48;8.30;;;2.58;;
9671;SDS011;4874;43.568;27.824;2023-04-15T03:36:15;5.20;;;2.15;;
9671;SDS011;4874;43.568;27.824;2023-04-15T03:38:42;6.65;;;2.22;;
9671;SDS011;4874;43.568;27.824;2023-04-15T03:43:35;8.55;;;1.75;;
9671;SDS011;4874;43.568;27.824;2023-04-15T03:48:28;8.43;;;2.40;;
9671;SDS011;4874;43.568;27.824;2023-04-15T03:50:55;8.48;;;2.35;;
9671;SDS011;4874;43.568;27.824;2023-04-15T03:55:48;9.13;;;2.95;;
9671;SDS011;4874;43.568;27.824;2023-04-15T04:00:42;7.32;;;2.70;;
9671;SDS011;4874;43.568;27.824;2023-04-15T04:05:35;11.45;;;2.65;;
9671;SDS011;4874;43.568;27.824;2023-04-15T04:08:04;9.23;;;3.30;;
9671;SDS011;4874;43.568;27.824;2023-04-15T04:10:31;12.38;;;3.35;;
9671;SDS011;4874;43.568;27.824;2023-04-15T04:12:58;12.25;;;3.10;;
9671;SDS011;4874;43.568;27.824;2023-04-15T04:15:24;16.33;;;3.42;;
9671;SDS011;4874;43.568;27.824;2023-04-15T04:20:18;6.22;;;3.15;;
9671;SDS011;4874;43.568;27.824;2023-04-15T04:22:44;8.40;;;3.20;;
9671;SDS011;4874;43.568;27.824;2023-04-15T04:25:11;8.88;;;3.22;;
9671;SDS011;4874;43.568;27.824;2023-04-15T04:30:04;9.95;;;3.38;;
9671;SDS011;4874;43.568;27.824;2023-04-15T04:32:32;14.70;;;3.63;;
9671;SDS011;4874;43.568;27.824;2023-04-15T04:34:59;8.65;;;3.53;;
9671;SDS011;4874;43.568;27.824;2023-04-15T04:37:26;13.35;;;3.83;;
9671;SDS011;4874;43.568;27.824;2023-04-15T04:39:52;9.38;;;3.75;;
9671;SDS011;4874;43.568;27.824;2023-04-15T04:42:19;13.70;;;3.45;;
9671;SDS011;4874;43.568;27.824;2023-04-15T04:44:46;14.15;;;3.88;;
9671;SDS011;4874;43.568;27.824;2023-04-15T04:47:13;12.38;;;3.85;;
9671;SDS011;4874;43.568;27.824;2023-04-15T04:49:39;16.77;;;4.00;;
9671;SDS011;4874;43.568;27.824;2023-04-15T04:52:06;16.25;;;4.68;;
9671;SDS011;4874;43.568;27.824;2023-04-15T04:56:59;10.32;;;3.75;;
9671;SDS011;4874;43.568;27.824;2023-04-15T04:59:26;12.57;;;3.90;;
9671;SDS011;4874;43.568;27.824;2023-04-15T05:04:20;15.27;;;3.80;;
9671;SDS011;4874;43.568;27.824;2023-04-15T05:06:46;12.18;;;3.58;;
9671;SDS011;4874;43.568;27.824;2023-04-15T05:09:13;15.38;;;4.20;;
9671;SDS011;4874;43.568;27.824;2023-04-15T05:11:40;18.48;;;3.95;;
9671;SDS011;4874;43.568;27.824;2023-04-15T05:14:06;10.82;;;3.80;;
9671;SDS011;4874;43.568;27.824;2023-04-15T05:16:33;13.77;;;3.83;;
9671;SDS011;4874;43.568;27.824;2023-04-15T05:19:00;9.85;;;3.58;;
9671;SDS011;4874;43.568;27.824;2023-04-15T05:21:27;13.23;;;3.75;;
9671;SDS011;4874;43.568;27.824;2023-04-15T05:23:54;12.48;;;3.80;;
9671;SDS011;4874;43.568;27.824;2023-04-15T05:26:20;13.48;;;4.05;;
9671;SDS011;4874;43.568;27.824;2023-04-15T05:28:47;11.38;;;3.97;;
9671;SDS011;4874;43.568;27.824;2023-04-15T05:31:15;11.95;;;3.55;;
9671;SDS011;4874;43.568;27.824;2023-04-15T05:33:42;12.48;;;3.70;;
9671;SDS011;4874;43.568;27.824;2023-04-15T05:36:09;9.88;;;3.40;;
9671;SDS011;4874;43.568;27.824;2023-04-15T05:38:35;14.88;;;3.92;;
9671;SDS011;4874;43.568;27.824;2023-04-15T05:41:02;11.50;;;4.22;;
9671;SDS011;4874;43.568;27.824;2023-04-15T05:43:29;10.23;;;4.03;;
9671;SDS011;4874;43.568;27.824;2023-04-15T05:45:56;12.45;;;4.10;;
9671;SDS011;4874;43.568;27.824;2023-04-15T05:48:23;11.57;;;4.93;;
9671;SDS011;4874;43.568;27.824;2023-04-15T05:53:16;12.57;;;5.10;;
9671;SDS011;4874;43.568;27.824;2023-04-15T05:55:42;16.63;;;6.00;;
9671;SDS011;4874;43.568;27.824;2023-04-15T05:58:09;15.20;;;6.55;;
9671;SDS011;4874;43.568;27.824;2023-04-15T06:00:36;12.05;;;6.05;;
9671;SDS011;4874;43.568;27.824;2023-04-15T06:03:03;19.88;;;6.75;;
9671;SDS011;4874;43.568;27.824;2023-04-15T06:05:31;16.70;;;7.10;;
9671;SDS011;4874;43.568;27.824;2023-04-15T06:07:58;12.98;;;6.32;;
9671;SDS011;4874;43.568;27.824;2023-04-15T06:10:25;13.35;;;6.18;;
9671;SDS011;4874;43.568;27.824;2023-04-15T06:15:18;12.32;;;6.03;;
9671;SDS011;4874;43.568;27.824;2023-04-15T06:17:45;10.27;;;5.93;;
9671;SDS011;4874;43.568;27.824;2023-04-15T06:20:12;12.35;;;5.57;;
9671;SDS011;4874;43.568;27.824;2023-04-15T06:22:39;13.85;;;6.13;;
9671;SDS011;4874;43.568;27.824;2023-04-15T06:25:06;12.48;;;5.88;;
9671;SDS011;4874;43.568;27.824;2023-04-15T06:27:34;14.88;;;6.35;;
9671;SDS011;4874;43.568;27.824;2023-04-15T06:30:01;12.13;;;6.00;;
9671;SDS011;4874;43.568;27.824;2023-04-15T06:32:27;16.63;;;5.78;;
9671;SDS011;4874;43.568;27.824;2023-04-15T06:34:54;13.95;;;6.00;;
9671;SDS011;4874;43.568;27.824;2023-04-15T06:37:21;12.50;;;5.65;;
9671;SDS011;4874;43.568;27.824;2023-04-15T06:39:48;17.67;;;7.03;;
9671;SDS011;4874;43.568;27.824;2023-04-15T06:42:14;15.05;;;7.18;;
9671;SDS011;4874;43.568;27.824;2023-04-15T06:44:41;14.57;;;7.07;;
9671;SDS011;4874;43.568;27.824;2023-04-15T06:47:08;17.73;;;9.63;;
9671;SDS011;4874;43.568;27.824;2023-04-15T06:49:35;18.35;;;8.00;;
9671;SDS011;4874;43.568;27.824;2023-04-15T06:52:01;20.02;;;10.60;;
9671;SDS011;4874;43.568;27.824;2023-04-15T06:54:30;23.48;;;11.07;;
9671;SDS011;4874;43.568;27.824;2023-04-15T06:56:57;17.85;;;9.38;;
9671;SDS011;4874;43.568;27.824;2023-04-15T06:59:24;17.27;;;8.73;;
9671;SDS011;4874;43.568;27.824;2023-04-15T07:04:17;16.48;;;6.90;;
9671;SDS011;4874;43.568;27.824;2023-04-15T07:06:43;17.75;;;6.50;;
9671;SDS011;4874;43.568;27.824;2023-04-15T07:09:11;13.65;;;5.78;;
9671;SDS011;4874;43.568;27.824;2023-04-15T07:11:38;12.13;;;6.15;;
9671;SDS011;4874;43.568;27.824;2023-04-15T07:16:32;10.13;;;4.45;;
9671;SDS011;4874;43.568;27.824;2023-04-15T07:18:58;13.60;;;5.93;;
9671;SDS011;4874;43.568;27.824;2023-04-15T07:21:25;9.52;;;4.82;;
9671;SDS011;4874;43.568;27.824;2023-04-15T07:23:53;14.07;;;5.32;;
9671;SDS011;4874;43.568;27.824;2023-04-15T07:26:19;16.05;;;5.47;;
9671;SDS011;4874;43.568;27.824;2023-04-15T07:28:47;14.10;;;6.85;;
9671;SDS011;4874;43.568;27.824;2023-04-15T07:31:14;18.33;;;5.38;;
9671;SDS011;4874;43.568;27.824;2023-04-15T07:33:42;8.18;;;3.67;;
9671;SDS011;4874;43.568;27.824;2023-04-15T07:36:09;10.57;;;4.75;;
9671;SDS011;4874;43.568;27.824;2023-04-15T07:38:36;9.50;;;4.20;;
9671;SDS011;4874;43.568;27.824;2023-04-15T07:41:02;9.18;;;3.45;;
9671;SDS011;4874;43.568;27.824;2023-04-15T07:43:30;9.88;;;4.28;;
9671;SDS011;4874;43.568;27.824;2023-04-15T07:45:56;7.25;;;3.00;;
9671;SDS011;4874;43.568;27.824;2023-04-15T07:48:23;12.90;;;4.65;;
9671;SDS011;4874;43.568;27.824;2023-04-15T07:50:50;9.60;;;4.63;;
9671;SDS011;4874;43.568;27.824;2023-04-15T07:53:16;10.73;;;6.18;;
9671;SDS011;4874;43.568;27.824;2023-04-15T07:55:43;10.95;;;4.20;;
9671;SDS011;4874;43.568;27.824;2023-04-15T07:58:10;8.07;;;3.10;;
9671;SDS011;4874;43.568;27.824;2023-04-15T08:00:37;8.52;;;3.20;;
9671;SDS011;4874;43.568;27.824;2023-04-15T08:03:03;9.63;;;3.35;;
9671;SDS011;4874;43.568;27.824;2023-04-15T08:05:30;9.73;;;4.05;;
9671;SDS011;4874;43.568;27.824;2023-04-15T08:07:57;12.63;;;4.35;;
9671;SDS011;4874;43.568;27.824;2023-04-15T08:10:24;10.20;;;3.67;;
9671;SDS011;4874;43.568;27.824;2023-04-15T08:12:51;9.45;;;3.72;;
9671;SDS011;4874;43.568;27.824;2023-04-15T08:15:19;13.73;;;3.95;;
9671;SDS011;4874;43.568;27.824;2023-04-15T08:17:46;8.57;;;3.40;;
9671;SDS011;4874;43.568;27.824;2023-04-15T08:20:13;11.52;;;4.00;;
9671;SDS011;4874;43.568;27.824;2023-04-15T08:22:40;7.85;;;3.42;;
9671;SDS011;4874;43.568;27.824;2023-04-15T08:25:07;6.35;;;2.75;;
9671;SDS011;4874;43.568;27.824;2023-04-15T08:27:35;9.05;;;3.58;;
9671;SDS011;4874;43.568;27.824;2023-04-15T08:30:02;10.32;;;3.90;;
9671;SDS011;4874;43.568;27.824;2023-04-15T08:32:30;12.85;;;4.82;;
9671;SDS011;4874;43.568;27.824;2023-04-15T08:34:58;8.75;;;4.07;;
9671;SDS011;4874;43.568;27.824;2023-04-15T08:37:25;10.10;;;3.33;;
9671;SDS011;4874;43.568;27.824;2023-04-15T08:39:52;11.45;;;3.40;;
9671;SDS011;4874;43.568;27.824;2023-04-15T08:42:22;7.75;;;2.85;;
9671;SDS011;4874;43.568;27.824;2023-04-15T08:44:53;9.68;;;2.78;;
9671;SDS011;4874;43.568;27.824;2023-04-15T08:47:20;10.23;;;2.83;;
9671;SDS011;4874;43.568;27.824;2023-04-15T08:49:53;4.70;;;2.40;;
9671;SDS011;4874;43.568;27.824;2023-04-15T08:52:20;8.15;;;2.47;;
9671;SDS011;4874;43.568;27.824;2023-04-15T08:54:47;7.13;;;2.60;;
9671;SDS011;4874;43.568;27.824;2023-04-15T08:57:14;8.45;;;2.15;;
9671;SDS011;4874;43.568;27.824;2023-04-15T08:59:43;8.30;;;2.30;;
9671;SDS011;4874;43.568;27.824;2023-04-15T09:02:10;6.43;;;2.40;;
9671;SDS011;4874;43.568;27.824;2023-04-15T09:04:37;6.20;;;2.80;;
9671;SDS011;4874;43.568;27.824;2023-04-15T09:07:04;7.68;;;2.13;;
9671;SDS011;4874;43.568;27.824;2023-04-15T09:09:31;6.70;;;2.40;;
9671;SDS011;4874;43.568;27.824;2023-04-15T09:11:59;5.43;;;2.17;;
9671;SDS011;4874;43.568;27.824;2023-04-15T09:14:27;7.18;;;2.20;;
9671;SDS011;4874;43.568;27.824;2023-04-15T09:16:58;4.47;;;1.27;;
9671;SDS011;4874;43.568;27.824;2023-04-15T09:19:26;4.10;;;1.85;;
9671;SDS011;4874;43.568;27.824;2023-04-15T09:21:54;7.47;;;2.75;;
9671;SDS011;4874;43.568;27.824;2023-04-15T09:24:24;5.97;;;2.28;;
9671;SDS011;4874;43.568;27.824;2023-04-15T09:26:58;5.05;;;1.65;;
9671;SDS011;4874;43.568;27.824;2023-04-15T09:29:25;9.20;;;4.28;;
9671;SDS011;4874;43.568;27.824;2023-04-15T09:31:52;8.02;;;1.88;;
9671;SDS011;4874;43.568;27.824;2023-04-15T09:34:19;6.70;;;1.63;;
9671;SDS011;4874;43.568;27.824;2023-04-15T09:39:16;5.95;;;2.13;;
9671;SDS011;4874;43.568;27.824;2023-04-15T09:41:42;6.10;;;1.58;;
9671;SDS011;4874;43.568;27.824;2023-04-15T09:44:22;5.63;;;1.45;;
9671;SDS011;4874;43.568;27.824;2023-04-15T09:46:50;5.68;;;1.90;;
9671;SDS011;4874;43.568;27.824;2023-04-15T09:49:17;6.05;;;2.03;;
9671;SDS011;4874;43.568;27.824;2023-04-15T09:51:43;5.03;;;1.73;;
9671;SDS011;4874;43.568;27.824;2023-04-15T09:54:23;6.60;;;1.95;;
9671;SDS011;4874;43.568;27.824;2023-04-15T09:56:49;4.95;;;1.83;;
9671;SDS011;4874;43.568;27.824;2023-04-15T09:59:16;5.68;;;2.42;;
9671;SDS011;4874;43.568;27.824;2023-04-15T10:01:44;5.07;;;2.17;;
9671;SDS011;4874;43.568;27.824;2023-04-15T10:04:12;4.05;;;1.60;;
9671;SDS011;4874;43.568;27.824;2023-04-15T10:06:39;4.25;;;1.65;;
9671;SDS011;4874;43.568;27.824;2023-04-15T10:09:06;5.53;;;2.10;;
9671;SDS011;4874;43.568;27.824;2023-04-15T10:11:34;5.57;;;1.90;;
9671;SDS011;4874;43.568;27.824;2023-04-15T10:14:01;5.20;;;2.10;;
9671;SDS011;4874;43.568;27.824;2023-04-15T10:16:29;4.25;;;1.67;;
9671;SDS011;4874;43.568;27.824;2023-04-15T10:18:59;7.40;;;2.17;;
9671;SDS011;4874;43.568;27.824;2023-04-15T10:21:27;5.70;;;2.67;;
9671;SDS011;4874;43.568;27.824;2023-04-15T10:23:56;4.03;;;1.70;;
9671;SDS011;4874;43.568;27.824;2023-04-15T10:26:23;4.53;;;1.60;;
9671;SDS011;4874;43.568;27.824;2023-04-15T10:28:50;5.78;;;2.00;;
9671;SDS011;4874;43.568;27.824;2023-04-15T10:31:18;6.27;;;2.13;;
9671;SDS011;4874;43.568;27.824;2023-04-15T10:33:46;4.75;;;1.73;;
9671;SDS011;4874;43.568;27.824;2023-04-15T10:36:14;4.50;;;1.65;;
9671;SDS011;4874;43.568;27.824;2023-04-15T10:38:42;6.97;;;3.60;;
9671;SDS011;4874;43.568;27.824;2023-04-15T10:46:18;4.78;;;1.40;;
9671;SDS011;4874;43.568;27.824;2023-04-15T10:48:53;5.43;;;2.10;;
9671;SDS011;4874;43.568;27.824;2023-04-15T10:51:27;5.25;;;1.60;;
9671;SDS011;4874;43.568;27.824;2023-04-15T10:53:56;4.63;;;1.87;;
9671;SDS011;4874;43.568;27.824;2023-04-15T10:56:26;5.50;;;1.88;;
9671;SDS011;4874;43.568;27.824;2023-04-15T10:58:53;8.88;;;2.30;;
9671;SDS011;4874;43.568;27.824;2023-04-15T11:01:20;8.10;;;2.30;;
9671;SDS011;4874;43.568;27.824;2023-04-15T11:03:50;5.00;;;2.05;;
9671;SDS011;4874;43.568;27.824;2023-04-15T11:06:17;4.82;;;1.25;;
9671;SDS011;4874;43.568;27.824;2023-04-15T11:08:54;3.13;;;1.50;;
9671;SDS011;4874;43.568;27.824;2023-04-15T11:14:27;6.20;;;1.40;;
9671;SDS011;4874;43.568;27.824;2023-04-15T11:16:54;5.03;;;1.60;;
9671;SDS011;4874;43.568;27.824;2023-04-15T11:19:21;2.40;;;1.17;;
9671;SDS011;4874;43.568;27.824;2023-04-15T11:21:47;5.88;;;1.63;;
9671;SDS011;4874;43.568;27.824;2023-04-15T11:24:32;4.82;;;1.60;;
9671;SDS011;4874;43.568;27.824;2023-04-15T11:27:00;3.58;;;1.20;;
9671;SDS011;4874;43.568;27.824;2023-04-15T11:29:28;3.60;;;1.40;;
9671;SDS011;4874;43.568;27.824;2023-04-15T11:32:08;6.60;;;1.42;;
9671;SDS011;4874;43.568;27.824;2023-04-15T11:34:35;5.45;;;1.58;;
9671;SDS011;4874;43.568;27.824;2023-04-15T11:37:05;6.50;;;1.75;;
9671;SDS011;4874;43.568;27.824;2023-04-15T11:39:33;5.40;;;1.73;;
9671;SDS011;4874;43.568;27.824;2023-04-15T11:41:59;5.30;;;1.38;;
9671;SDS011;4874;43.568;27.824;2023-04-15T11:44:26;2.58;;;1.33;;
9671;SDS011;4874;43.568;27.824;2023-04-15T11:46:54;3.38;;;1.10;;
9671;SDS011;4874;43.568;27.824;2023-04-15T11:49:25;2.17;;;1.00;;
9671;SDS011;4874;43.568;27.824;2023-04-15T11:51:53;5.97;;;1.70;;
9671;SDS011;4874;43.568;27.824;2023-04-15T11:54:20;4.25;;;1.77;;
9671;SDS011;4874;43.568;27.824;2023-04-15T11:56:50;2.72;;;1.25;;
9671;SDS011;4874;43.568;27.824;2023-04-15T11:59:18;4.15;;;1.60;;
9671;SDS011;4874;43.568;27.824;2023-04-15T12:01:44;4.80;;;1.45;;
9671;SDS011;4874;43.568;27.824;2023-04-15T12:04:13;6.90;;;1.50;;
9671;SDS011;4874;43.568;27.824;2023-04-15T12:06:44;4.18;;;1.58;;
9671;SDS011;4874;43.568;27.824;2023-04-15T12:09:12;5.18;;;1.70;;
9671;SDS011;4874;43.568;27.824;2023-04-15T12:16:44;4.80;;;1.20;;
9671;SDS011;4874;43.568;27.824;2023-04-15T12:19:21;3.35;;;1.10;;
9671;SDS011;4874;43.568;27.824;2023-04-15T12:21:56;4.72;;;1.50;;
9671;SDS011;4874;43.568;27.824;2023-04-15T12:24:25;2.78;;;1.33;;
9671;SDS011;4874;43.568;27.824;2023-04-15T12:26:53;6.07;;;1.40;;
9671;SDS011;4874;43.568;27.824;2023-04-15T12:29:26;5.03;;;1.60;;
9671;SDS011;4874;43.568;27.824;2023-04-15T12:31:55;5.60;;;1.73;;
9671;SDS011;4874;43.568;27.824;2023-04-15T12:37:04;5.22;;;1.70;;
9671;SDS011;4874;43.568;27.824;2023-04-15T12:39:37;4.47;;;1.20;;
9671;SDS011;4874;43.568;27.824;2023-04-15T12:42:05;5.45;;;1.35;;
9671;SDS011;4874;43.568;27.824;2023-04-15T12:44:33;4.63;;;1.67;;
9671;SDS011;4874;43.568;27.824;2023-04-15T12:47:01;5.80;;;1.45;;
9671;SDS011;4874;43.568;27.824;2023-04-15T12:49:28;5.15;;;1.33;;
9671;SDS011;4874;43.568;27.824;2023-04-15T12:51:56;4.07;;;1.50;;
9671;SDS011;4874;43.568;27.824;2023-04-15T12:54:25;5.00;;;1.50;;
9671;SDS011;4874;43.568;27.824;2023-04-15T12:56:52;3.30;;;1.30;;
9671;SDS011;4874;43.568;27.824;2023-04-15T12:59:20;4.75;;;1.40;;
9671;SDS011;4874;43.568;27.824;2023-04-15T13:01:47;3.15;;;1.30;;
9671;SDS011;4874;43.568;27.824;2023-04-15T13:04:14;4.30;;;1.70;;
9671;SDS011;4874;43.568;27.824;2023-04-15T13:06:42;4.38;;;1.33;;
9671;SDS011;4874;43.568;27.824;2023-04-15T13:09:08;5.47;;;1.35;;
9671;SDS011;4874;43.568;27.824;2023-04-15T13:11:36;7.28;;;1.52;;
9671;SDS011;4874;43.568;27.824;2023-04-15T13:14:03;4.03;;;1.10;;
9671;SDS011;4874;43.568;27.824;2023-04-15T13:16:33;4.43;;;1.30;;
9671;SDS011;4874;43.568;27.824;2023-04-15T13:19:01;4.72;;;1.35;;
9671;SDS011;4874;43.568;27.824;2023-04-15T13:21:29;4.30;;;1.50;;
9671;SDS011;4874;43.568;27.824;2023-04-15T13:23:57;6.47;;;1.30;;
9671;SDS011;4874;43.568;27.824;2023-04-15T13:26:24;5.13;;;1.48;;
9671;SDS011;4874;43.568;27.824;2023-04-15T13:28:51;7.40;;;1.38;;
9671;SDS011;4874;43.568;27.824;2023-04-15T13:31:18;5.32;;;1.55;;
9671;SDS011;4874;43.568;27.824;2023-04-15T13:33:45;4.70;;;1.50;;
9671;SDS011;4874;43.568;27.824;2023-04-15T13:36:11;3.10;;;1.05;;
9671;SDS011;4874;43.568;27.824;2023-04-15T13:38:38;3.95;;;1.60;;
9671;SDS011;4874;43.568;27.824;2023-04-15T13:41:05;4.05;;;1.65;;
9671;SDS011;4874;43.568;27.824;2023-04-15T13:43:31;4.50;;;1.25;;
9671;SDS011;4874;43.568;27.824;2023-04-15T13:45:59;3.63;;;1.05;;
9671;SDS011;4874;43.568;27.824;2023-04-15T13:48:27;3.25;;;1.30;;
9671;SDS011;4874;43.568;27.824;2023-04-15T13:50:54;6.82;;;1.73;;
9671;SDS011;4874;43.568;27.824;2023-04-15T13:53:20;5.47;;;1.67;;
9671;SDS011;4874;43.568;27.824;2023-04-15T13:55:52;5.50;;;1.23;;
9671;SDS011;4874;43.568;27.824;2023-04-15T13:58:19;6.82;;;1.73;;
9671;SDS011;4874;43.568;27.824;2023-04-15T14:00:46;3.45;;;1.50;;
9671;SDS011;4874;43.568;27.824;2023-04-15T14:03:12;5.78;;;2.20;;
9671;SDS011;4874;43.568;27.824;2023-04-15T14:05:39;4.80;;;1.50;;
9671;SDS011;4874;43.568;27.824;2023-04-15T14:08:06;9.23;;;3.50;;
9671;SDS011;4874;43.568;27.824;2023-04-15T14:10:33;4.97;;;2.22;;
9671;SDS011;4874;43.568;27.824;2023-04-15T14:13:01;7.63;;;2.00;;
9671;SDS011;4874;43.568;27.824;2023-04-15T14:15:27;4.85;;;1.60;;
9671;SDS011;4874;43.568;27.824;2023-04-15T14:17:54;5.28;;;1.65;;
9671;SDS011;4874;43.568;27.824;2023-04-15T14:20:21;4.60;;;1.80;;
9671;SDS011;4874;43.568;27.824;2023-04-15T14:22:48;10.13;;;2.20;;
9671;SDS011;4874;43.568;27.824;2023-04-15T14:25:14;7.80;;;3.53;;
9671;SDS011;4874;43.568;27.824;2023-04-15T14:27:55;4.63;;;1.23;;
9671;SDS011;4874;43.568;27.824;2023-04-15T14:30:22;5.53;;;1.58;;
9671;SDS011;4874;43.568;27.824;2023-04-15T14:32:49;5.13;;;1.38;;
9671;SDS011;4874;43.568;27.824;2023-04-15T14:35:15;4.80;;;1.73;;
9671;SDS011;4874;43.568;27.824;2023-04-15T14:37:42;3.95;;;1.50;;
9671;SDS011;4874;43.568;27.824;2023-04-15T14:40:09;6.28;;;1.40;;
9671;SDS011;4874;43.568;27.824;2023-04-15T14:42:36;2.75;;;1.30;;
9671;SDS011;4874;43.568;27.824;2023-04-15T14:45:02;6.78;;;1.85;;
9671;SDS011;4874;43.568;27.824;2023-04-15T14:47:29;5.63;;;1.70;;
9671;SDS011;4874;43.568;27.824;2023-04-15T14:49:56;5.15;;;1.40;;
9671;SDS011;4874;43.568;27.824;2023-04-15T14:52:23;4.57;;;1.83;;
9671;SDS011;4874;43.568;27.824;2023-04-15T14:54:50;3.33;;;1.38;;
9671;SDS011;4874;43.568;27.824;2023-04-15T14:57:16;6.80;;;1.60;;
9671;SDS011;4874;43.568;27.824;2023-04-15T14:59:43;5.13;;;1.30;;
9671;SDS011;4874;43.568;27.824;2023-04-15T15:02:10;6.70;;;1.67;;
9671;SDS011;4874;43.568;27.824;2023-04-15T15:04:39;3.97;;;1.10;;
9671;SDS011;4874;43.568;27.824;2023-04-15T15:07:06;3.92;;;1.33;;
9671;SDS011;4874;43.568;27.824;2023-04-15T15:09:33;6.75;;;1.63;;
9671;SDS011;4874;43.568;27.824;2023-04-15T15:12:00;7.68;;;1.80;;
9671;SDS011;4874;43.568;27.824;2023-04-15T15:14:27;5.90;;;1.90;;
9671;SDS011;4874;43.568;27.824;2023-04-15T15:16:53;6.72;;;2.17;;
9671;SDS011;4874;43.568;27.824;2023-04-15T15:19:20;6.03;;;2.08;;
9671;SDS011;4874;43.568;27.824;2023-04-15T15:21:47;4.25;;;1.67;;
9671;SDS011;4874;43.568;27.824;2023-04-15T15:24:14;3.55;;;1.65;;
9671;SDS011;4874;43.568;27.824;2023-04-15T15:26:41;4.88;;;1.73;;
9671;SDS011;4874;43.568;27.824;2023-04-15T15:29:08;6.15;;;1.83;;
9671;SDS011;4874;43.568;27.824;2023-04-15T15:31:34;5.20;;;1.50;;
9671;SDS011;4874;43.568;27.824;2023-04-15T15:34:02;6.78;;;2.33;;
9671;SDS011;4874;43.568;27.824;2023-04-15T15:36:29;4.97;;;1.60;;
9671;SDS011;4874;43.568;27.824;2023-04-15T15:38:59;4.60;;;1.50;;
9671;SDS011;4874;43.568;27.824;2023-04-15T15:41:26;5.95;;;1.50;;
9671;SDS011;4874;43.568;27.824;2023-04-15T15:43:52;6.38;;;1.52;;
9671;SDS011;4874;43.568;27.824;2023-04-15T15:46:19;5.65;;;1.40;;
9671;SDS011;4874;43.568;27.824;2023-04-15T15:48:46;5.22;;;1.30;;
9671;SDS011;4874;43.568;27.824;2023-04-15T15:51:13;6.38;;;2.00;;
9671;SDS011;4874;43.568;27.824;2023-04-15T15:53:40;4.95;;;1.80;;
9671;SDS011;4874;43.568;27.824;2023-04-15T15:56:06;5.43;;;1.48;;
9671;SDS011;4874;43.568;27.824;2023-04-15T15:58:33;4.45;;;1.17;;
9671;SDS011;4874;43.568;27.824;2023-04-15T16:01:00;5.85;;;1.80;;
9671;SDS011;4874;43.568;27.824;2023-04-15T16:03:27;5.20;;;1.50;;
9671;SDS011;4874;43.568;27.824;2023-04-15T16:05:54;6.97;;;1.70;;
9671;SDS011;4874;43.568;27.824;2023-04-15T16:08:21;3.60;;;1.63;;
9671;SDS011;4874;43.568;27.824;2023-04-15T16:10:47;5.10;;;1.90;;
9671;SDS011;4874;43.568;27.824;2023-04-15T16:13:14;4.85;;;1.83;;
9671;SDS011;4874;43.568;27.824;2023-04-15T16:15:41;7.13;;;2.60;;
9671;SDS011;4874;43.568;27.824;2023-04-15T16:18:08;7.35;;;3.20;;
9671;SDS011;4874;43.568;27.824;2023-04-15T16:20:34;6.25;;;2.95;;
9671;SDS011;4874;43.568;27.824;2023-04-15T16:23:02;8.60;;;3.10;;
9671;SDS011;4874;43.568;27.824;2023-04-15T16:25:36;9.73;;;2.70;;
9671;SDS011;4874;43.568;27.824;2023-04-15T16:28:03;5.90;;;2.55;;